sensor_id;sensor_type;location;lat;lon;timestamp;pressure;altitude;pressure_sealevel;temperature;humidity
7668;BME280;3876;42.204;24.686;2023-09-08T00:01:15;99859.69;;;23.24;100.00
7668;BME280;3876;42.204;24.686;2023-09-08T00:03:41;99860.75;;;23.22;100.00
7668;BME280;3876;42.204;24.686;2023-09-08T00:06:08;99863.94;;;23.14;100.00
7668;BME280;3876;42.204;24.686;2023-09-08T00:08:35;99854.75;;;23.09;100.00
7668;BME280;3876;42.204;24.686;2023-09-08T00:11:03;99856.44;;;23.10;100.00
7668;BME280;3876;42.204;24.686;2023-09-08T00:13:30;99844.75;;;23.02;100.00
7668;BME280;3876;42.204;24.686;2023-09-08T00:15:57;99854.75;;;23.09;100.00
7668;BME280;3876;42.204;24.686;2023-09-08T00:18:23;99842.72;;;22.95;100.00
7668;BME280;3876;42.204;24.686;2023-09-08T00:20:50;99855.91;;;22.93;100.00
7668;BME280;3876;42.204;24.686;2023-09-08T00:23:17;99864.47;;;22.95;100.00
7668;BME280;3876;42.204;24.686;2023-09-08T00:25:43;99870.47;;;22.85;100.00
7668;BME280;3876;42.204;24.686;2023-09-08T00:28:11;99864.16;;;22.76;100.00
7668;BME280;3876;42.204;24.686;2023-09-08T00:30:38;99864.16;;;22.76;100.00
7668;BME280;3876;42.204;24.686;2023-09-08T00:33:05;99864.63;;;22.81;100.00
7668;BME280;3876;42.204;24.686;2023-09-08T00:35:34;99867.03;;;22.84;100.00
7668;BME280;3876;42.204;24.686;2023-09-08T00:38:00;99865.38;;;22.83;100.00
7668;BME280;3876;42.204;24.686;2023-09-08T00:40:27;99866.53;;;22.79;100.00
7668;BME280;3876;42.204;24.686;2023-09-08T00:42:54;99863.44;;;22.74;100.00
7668;BME280;3876;42.204;24.686;2023-09-08T00:45:22;99869.41;;;22.64;100.00
7668;BME280;3876;42.204;24.686;2023-09-08T00:47:49;99861.44;;;22.65;100.00
7668;BME280;3876;42.204;24.686;2023-09-08T00:50:16;99863.56;;;22.60;100.00
7668;BME280;3876;42.204;24.686;2023-09-08T00:52:43;99864.44;;;22.48;100.00
7668;BME280;3876;42.204;24.686;2023-09-08T00:55:10;99863.47;;;22.49;100.00
7668;BME280;3876;42.204;24.686;2023-09-08T00:57:37;99867.06;;;22.48;100.00
7668;BME280;3876;42.204;24.686;2023-09-08T01:00:05;99855.66;;;22.49;100.00
7668;BME280;3876;42.204;24.686;2023-09-08T01:02:33;99856.84;;;22.45;100.00
7668;BME280;3876;42.204;24.686;2023-09-08T01:05:00;99850.88;;;22.43;100.00
7668;BME280;3876;42.204;24.686;2023-09-08T01:07:29;99842.75;;;22.35;100.00
7668;BME280;3876;42.204;24.686;2023-09-08T01:09:57;99850.91;;;22.30;100.00
7668;BME280;3876;42.204;24.686;2023-09-08T01:12:29;99845.81;;;22.29;100.00
7668;BME280;3876;42.204;24.686;2023-09-08T01:14:55;99842.34;;;22.28;100.00
7668;BME280;3876;42.204;24.686;2023-09-08T01:17:22;99836.06;;;22.31;100.00
7668;BME280;3876;42.204;24.686;2023-09-08T01:19:54;99845.59;;;22.32;100.00
7668;BME280;3876;42.204;24.686;2023-09-08T01:22:40;99836.91;;;22.31;100.00
7668;BME280;3876;42.204;24.686;2023-09-08T01:25:18;99836.91;;;22.31;100.00
7668;BME280;3876;42.204;24.686;2023-09-08T01:27:47;99832.41;;;22.33;100.00
7668;BME280;3876;42.204;24.686;2023-09-08T01:30:15;99823.50;;;22.36;100.00
7668;BME280;3876;42.204;24.686;2023-09-08T01:32:44;99820.69;;;22.39;100.00
7668;BME280;3876;42.204;24.686;2023-09-08T01:35:11;99825.19;;;22.37;100.00
7668;BME280;3876;42.204;24.686;2023-09-08T01:37:40;99826.94;;;22.36;100.00
7668;BME280;3876;42.204;24.686;2023-09-08T01:40:07;99823.50;;;22.36;100.00
7668;BME280;3876;42.204;24.686;2023-09-08T01:42:37;99824.97;;;22.40;100.00
7668;BME280;3876;42.204;24.686;2023-09-08T01:45:04;99828.53;;;22.39;100.00
7668;BME280;3876;42.204;24.686;2023-09-08T01:47:31;99824.13;;;22.39;100.00
7668;BME280;3876;42.204;24.686;2023-09-08T01:49:59;99821.63;;;22.38;100.00
7668;BME280;3876;42.204;24.686;2023-09-08T01:52:26;99819.97;;;22.37;100.00
7668;BME280;3876;42.204;24.686;2023-09-08T01:54:53;99828.41;;;22.40;100.00
7668;BME280;3876;42.204;24.686;2023-09-08T01:57:20;99814.13;;;22.33;100.00
7668;BME280;3876;42.204;24.686;2023-09-08T01:59:48;99825.19;;;22.37;100.00
7668;BME280;3876;42.204;24.686;2023-09-08T02:02:15;99825.19;;;22.37;100.00
7668;BME280;3876;42.204;24.686;2023-09-08T02:04:42;99817.91;;;22.29;100.00
7668;BME280;3876;42.204;24.686;2023-09-08T02:07:09;99822.91;;;22.32;100.00
7668;BME280;3876;42.204;24.686;2023-09-08T02:09:37;99830.84;;;22.31;100.00
7668;BME280;3876;42.204;24.686;2023-09-08T02:12:04;99831.06;;;22.28;100.00
7668;BME280;3876;42.204;24.686;2023-09-08T02:14:31;99832.97;;;22.26;100.00
7668;BME280;3876;42.204;24.686;2023-09-08T02:16:59;99828.78;;;22.23;100.00
7668;BME280;3876;42.204;24.686;2023-09-08T02:19:26;99819.81;;;22.15;100.00
7668;BME280;3876;42.204;24.686;2023-09-08T02:21:53;99827.66;;;22.15;100.00
7668;BME280;3876;42.204;24.686;2023-09-08T02:24:19;99822.56;;;22.13;100.00
7668;BME280;3876;42.204;24.686;2023-09-08T02:26:46;99824.44;;;22.11;100.00
7668;BME280;3876;42.204;24.686;2023-09-08T02:29:13;99821.09;;;22.09;100.00
7668;BME280;3876;42.204;24.686;2023-09-08T02:31:40;99823.81;;;22.08;100.00
7668;BME280;3876;42.204;24.686;2023-09-08T02:34:08;99822.34;;;22.04;100.00
7668;BME280;3876;42.204;24.686;2023-09-08T02:36:36;99807.97;;;21.85;100.00
7668;BME280;3876;42.204;24.686;2023-09-08T02:39:04;99814.84;;;21.86;100.00
7668;BME280;3876;42.204;24.686;2023-09-08T02:41:32;99814.53;;;21.78;100.00
7668;BME280;3876;42.204;24.686;2023-09-08T02:43:59;99807.97;;;21.73;100.00
7668;BME280;3876;42.204;24.686;2023-09-08T02:46:26;99811.63;;;21.70;100.00
7668;BME280;3876;42.204;24.686;2023-09-08T02:48:52;99807.78;;;21.63;100.00
7668;BME280;3876;42.204;24.686;2023-09-08T02:51:20;99810.59;;;21.60;100.00
7668;BME280;3876;42.204;24.686;2023-09-08T02:53:47;99784.81;;;21.43;100.00
7668;BME280;3876;42.204;24.686;2023-09-08T02:56:14;99805.28;;;21.49;100.00
7668;BME280;3876;42.204;24.686;2023-09-08T02:58:41;99805.47;;;21.46;100.00
7668;BME280;3876;42.204;24.686;2023-09-08T03:01:12;99798.63;;;21.45;100.00
7668;BME280;3876;42.204;24.686;2023-09-08T03:03:40;99806.53;;;21.43;100.00
7668;BME280;3876;42.204;24.686;2023-09-08T03:06:07;99802.38;;;21.41;100.00
7668;BME280;3876;42.204;24.686;2023-09-08T03:08:35;99815.63;;;21.38;100.00
7668;BME280;3876;42.204;24.686;2023-09-08T03:11:03;99813.22;;;21.35;100.00
7668;BME280;3876;42.204;24.686;2023-09-08T03:13:30;99806.63;;;21.29;100.00
7668;BME280;3876;42.204;24.686;2023-09-08T03:16:02;99813.94;;;21.24;100.00
7668;BME280;3876;42.204;24.686;2023-09-08T03:18:28;99812.38;;;21.22;100.00
7668;BME280;3876;42.204;24.686;2023-09-08T03:20:55;99822.81;;;21.22;100.00
7668;BME280;3876;42.204;24.686;2023-09-08T03:23:22;99823.53;;;21.24;100.00
7668;BME280;3876;42.204;24.686;2023-09-08T03:25:50;99822.59;;;21.25;100.00
7668;BME280;3876;42.204;24.686;2023-09-08T03:28:17;99823.84;;;21.19;100.00
7668;BME280;3876;42.204;24.686;2023-09-08T03:30:43;99823.00;;;21.19;100.00
7668;BME280;3876;42.204;24.686;2023-09-08T03:33:11;99820.41;;;21.19;100.00
7668;BME280;3876;42.204;24.686;2023-09-08T03:35:37;99816.13;;;21.18;100.00
7668;BME280;3876;42.204;24.686;2023-09-08T03:38:04;99820.41;;;21.19;100.00
7668;BME280;3876;42.204;24.686;2023-09-08T03:40:31;99828.22;;;21.19;100.00
7668;BME280;3876;42.204;24.686;2023-09-08T03:42:59;99827.41;;;21.18;100.00
7668;BME280;3876;42.204;24.686;2023-09-08T03:45:25;99823.00;;;21.19;100.00
7668;BME280;3876;42.204;24.686;2023-09-08T03:47:52;99824.06;;;21.16;100.00
7668;BME280;3876;42.204;24.686;2023-09-08T03:50:19;99820.91;;;21.11;100.00
7668;BME280;3876;42.204;24.686;2023-09-08T03:52:45;99819.31;;;21.09;100.00
7668;BME280;3876;42.204;24.686;2023-09-08T03:55:12;99814.03;;;21.10;100.00
7668;BME280;3876;42.204;24.686;2023-09-08T03:57:39;99819.16;;;21.12;100.00
7668;BME280;3876;42.204;24.686;2023-09-08T04:00:08;99820.91;;;21.11;100.00
7668;BME280;3876;42.204;24.686;2023-09-08T04:02:36;99824.53;;;21.09;100.00
7668;BME280;3876;42.204;24.686;2023-09-08T04:05:04;99827.91;;;21.11;100.00
7668;BME280;3876;42.204;24.686;2023-09-08T04:07:31;99823.44;;;21.13;100.00
7668;BME280;3876;42.204;24.686;2023-09-08T04:09:57;99813.34;;;21.07;100.00
7668;BME280;3876;42.204;24.686;2023-09-08T04:12:27;99830.09;;;21.17;100.00
7668;BME280;3876;42.204;24.686;2023-09-08T04:14:53;99830.09;;;21.17;100.00
7668;BME280;3876;42.204;24.686;2023-09-08T04:17:21;99833.44;;;21.19;100.00
7668;BME280;3876;42.204;24.686;2023-09-08T04:19:48;99833.25;;;21.22;100.00
7668;BME280;3876;42.204;24.686;2023-09-08T04:22:15;99831.34;;;21.24;100.00
7668;BME280;3876;42.204;24.686;2023-09-08T04:24:41;99838.25;;;21.25;100.00
7668;BME280;3876;42.204;24.686;2023-09-08T04:27:08;99836.34;;;21.27;100.00
7668;BME280;3876;42.204;24.686;2023-09-08T04:29:35;99836.34;;;21.27;100.00
7668;BME280;3876;42.204;24.686;2023-09-08T04:32:02;99841.38;;;21.30;100.00
7668;BME280;3876;42.204;24.686;2023-09-08T04:34:36;99843.78;;;21.33;100.00
7668;BME280;3876;42.204;24.686;2023-09-08T04:37:03;99846.38;;;21.33;100.00
7668;BME280;3876;42.204;24.686;2023-09-08T04:39:30;99845.56;;;21.32;100.00
7668;BME280;3876;42.204;24.686;2023-09-08T04:41:57;99854.75;;;21.38;100.00
7668;BME280;3876;42.204;24.686;2023-09-08T04:44:23;99857.03;;;21.42;100.00
7668;BME280;3876;42.204;24.686;2023-09-08T04:46:50;99863.31;;;21.53;100.00
7668;BME280;3876;42.204;24.686;2023-09-08T04:49:17;99857.66;;;21.59;100.00
7668;BME280;3876;42.204;24.686;2023-09-08T04:51:46;99854.53;;;21.66;100.00
7668;BME280;3876;42.204;24.686;2023-09-08T04:54:12;99858.28;;;21.75;100.00
7668;BME280;3876;42.204;24.686;2023-09-08T04:56:39;99850.88;;;21.81;100.00
7668;BME280;3876;42.204;24.686;2023-09-08T04:59:06;99815.91;;;21.71;100.00
7668;BME280;3876;42.204;24.686;2023-09-08T05:01:33;99858.72;;;22.07;100.00
7668;BME280;3876;42.204;24.686;2023-09-08T05:04:02;99859.31;;;22.23;100.00
7668;BME280;3876;42.204;24.686;2023-09-08T05:06:29;99861.97;;;22.34;100.00
7668;BME280;3876;42.204;24.686;2023-09-08T05:08:57;99866.03;;;22.38;100.00
7668;BME280;3876;42.204;24.686;2023-09-08T05:11:24;99867.78;;;22.50;100.00
7668;BME280;3876;42.204;24.686;2023-09-08T05:13:51;99865.00;;;22.64;100.00
7668;BME280;3876;42.204;24.686;2023-09-08T05:16:18;99873.38;;;22.69;100.00
7668;BME280;3876;42.204;24.686;2023-09-08T05:18:51;99854.13;;;22.70;100.00
7668;BME280;3876;42.204;24.686;2023-09-08T05:21:18;99880.38;;;22.92;100.00
7668;BME280;3876;42.204;24.686;2023-09-08T05:23:44;99878.00;;;22.89;100.00
7668;BME280;3876;42.204;24.686;2023-09-08T05:26:13;99867.22;;;22.94;100.00
7668;BME280;3876;42.204;24.686;2023-09-08T05:28:39;99860.69;;;22.99;100.00
7668;BME280;3876;42.204;24.686;2023-09-08T05:31:06;99865.47;;;23.06;100.00
7668;BME280;3876;42.204;24.686;2023-09-08T05:33:33;99850.97;;;23.13;100.00
7668;BME280;3876;42.204;24.686;2023-09-08T05:36:00;99868.19;;;23.39;100.00
7668;BME280;3876;42.204;24.686;2023-09-08T05:38:27;99875.34;;;23.59;100.00
7668;BME280;3876;42.204;24.686;2023-09-08T05:40:54;99883.22;;;23.81;100.00
7668;BME280;3876;42.204;24.686;2023-09-08T05:43:23;99880.38;;;23.95;100.00
7668;BME280;3876;42.204;24.686;2023-09-08T05:45:50;99889.22;;;24.05;100.00
7668;BME280;3876;42.204;24.686;2023-09-08T05:48:17;99883.75;;;24.20;100.00
7668;BME280;3876;42.204;24.686;2023-09-08T05:50:43;99896.94;;;24.40;100.00
7668;BME280;3876;42.204;24.686;2023-09-08T05:53:10;99898.94;;;24.59;100.00
7668;BME280;3876;42.204;24.686;2023-09-08T05:55:37;99895.53;;;24.79;100.00
7668;BME280;3876;42.204;24.686;2023-09-08T05:58:04;99895.47;;;25.01;100.00
7668;BME280;3876;42.204;24.686;2023-09-08T06:00:34;99895.38;;;25.24;99.12
7668;BME280;3876;42.204;24.686;2023-09-08T06:03:00;99899.91;;;25.33;96.04
7668;BME280;3876;42.204;24.686;2023-09-08T06:05:27;99902.78;;;25.50;97.38
7668;BME280;3876;42.204;24.686;2023-09-08T06:07:54;99898.75;;;25.67;95.28
7668;BME280;3876;42.204;24.686;2023-09-08T06:10:21;99899.94;;;25.84;93.63
7668;BME280;3876;42.204;24.686;2023-09-08T06:12:47;99902.78;;;26.01;92.56
7668;BME280;3876;42.204;24.686;2023-09-08T06:15:16;99907.00;;;26.14;91.20
7668;BME280;3876;42.204;24.686;2023-09-08T06:17:44;99898.41;;;26.11;89.76
7668;BME280;3876;42.204;24.686;2023-09-08T06:20:12;99903.22;;;26.06;87.87
7668;BME280;3876;42.204;24.686;2023-09-08T06:22:38;99909.75;;;26.12;89.10
7668;BME280;3876;42.204;24.686;2023-09-08T06:25:06;99914.00;;;26.03;88.50
7668;BME280;3876;42.204;24.686;2023-09-08T06:27:33;99914.97;;;26.02;88.92
7668;BME280;3876;42.204;24.686;2023-09-08T06:29:59;99921.53;;;25.87;88.42
7668;BME280;3876;42.204;24.686;2023-09-08T06:32:26;99918.72;;;25.79;90.89
7668;BME280;3876;42.204;24.686;2023-09-08T06:34:56;99922.56;;;25.75;90.68
7668;BME280;3876;42.204;24.686;2023-09-08T06:37:24;99924.22;;;25.76;90.71
7668;BME280;3876;42.204;24.686;2023-09-08T06:39:51;99912.31;;;25.72;91.85
7668;BME280;3876;42.204;24.686;2023-09-08T06:42:20;99912.88;;;25.76;93.36
7668;BME280;3876;42.204;24.686;2023-09-08T06:44:49;99923.28;;;25.77;90.56
7668;BME280;3876;42.204;24.686;2023-09-08T06:47:15;99925.13;;;25.66;93.02
7668;BME280;3876;42.204;24.686;2023-09-08T06:49:42;99925.97;;;25.66;91.73
7668;BME280;3876;42.204;24.686;2023-09-08T06:52:10;99918.97;;;25.76;92.94
7668;BME280;3876;42.204;24.686;2023-09-08T06:54:37;99938.81;;;25.90;89.29
7668;BME280;3876;42.204;24.686;2023-09-08T06:57:04;99928.75;;;25.95;87.62
7668;BME280;3876;42.204;24.686;2023-09-08T06:59:31;99934.97;;;25.94;87.62
7668;BME280;3876;42.204;24.686;2023-09-08T07:01:57;99935.09;;;25.92;90.43
7668;BME280;3876;42.204;24.686;2023-09-08T07:04:24;99926.63;;;26.09;88.92
7668;BME280;3876;42.204;24.686;2023-09-08T07:06:51;99934.75;;;26.37;88.01
7668;BME280;3876;42.204;24.686;2023-09-08T07:09:21;99936.22;;;26.60;88.64
7668;BME280;3876;42.204;24.686;2023-09-08T07:11:48;99941.56;;;26.89;86.73
7668;BME280;3876;42.204;24.686;2023-09-08T07:14:14;99946.44;;;27.12;85.33
7668;BME280;3876;42.204;24.686;2023-09-08T07:16:41;99945.47;;;27.23;81.41
7668;BME280;3876;42.204;24.686;2023-09-08T07:19:08;99933.53;;;27.29;81.96
7668;BME280;3876;42.204;24.686;2023-09-08T07:21:34;99935.50;;;27.17;81.78
7668;BME280;3876;42.204;24.686;2023-09-08T07:24:01;99934.66;;;27.07;81.62
7668;BME280;3876;42.204;24.686;2023-09-08T07:26:29;99936.59;;;27.05;81.64
7668;BME280;3876;42.204;24.686;2023-09-08T07:28:56;99929.97;;;27.01;82.18
7668;BME280;3876;42.204;24.686;2023-09-08T07:31:23;99934.38;;;27.20;83.91
7668;BME280;3876;42.204;24.686;2023-09-08T07:33:49;99935.53;;;27.46;83.27
7668;BME280;3876;42.204;24.686;2023-09-08T07:36:16;99929.69;;;27.52;77.19
7668;BME280;3876;42.204;24.686;2023-09-08T07:38:43;99932.13;;;27.63;77.92
7668;BME280;3876;42.204;24.686;2023-09-08T07:41:09;99937.13;;;27.66;78.30
7668;BME280;3876;42.204;24.686;2023-09-08T07:43:38;99927.41;;;27.76;74.83
7668;BME280;3876;42.204;24.686;2023-09-08T07:46:06;99925.47;;;27.78;75.20
7668;BME280;3876;42.204;24.686;2023-09-08T07:48:32;99923.22;;;27.83;76.91
7668;BME280;3876;42.204;24.686;2023-09-08T07:50:59;99931.50;;;27.98;74.65
7668;BME280;3876;42.204;24.686;2023-09-08T07:53:26;99937.59;;;28.08;75.05
7668;BME280;3876;42.204;24.686;2023-09-08T07:55:53;99933.31;;;27.97;75.74
7668;BME280;3876;42.204;24.686;2023-09-08T07:58:21;99932.66;;;27.76;74.05
7668;BME280;3876;42.204;24.686;2023-09-08T08:00:49;99921.88;;;27.60;73.57
7668;BME280;3876;42.204;24.686;2023-09-08T08:03:16;99929.41;;;27.55;74.02
7668;BME280;3876;42.204;24.686;2023-09-08T08:05:43;99917.19;;;27.54;75.69
7668;BME280;3876;42.204;24.686;2023-09-08T08:08:10;99920.50;;;27.66;75.86
7668;BME280;3876;42.204;24.686;2023-09-08T08:10:36;99925.22;;;27.72;73.47
7668;BME280;3876;42.204;24.686;2023-09-08T08:13:03;99917.59;;;27.69;71.27
7668;BME280;3876;42.204;24.686;2023-09-08T08:15:37;99921.34;;;27.47;71.59
7668;BME280;3876;42.204;24.686;2023-09-08T08:18:06;99923.88;;;27.48;71.72
7668;BME280;3876;42.204;24.686;2023-09-08T08:20:35;99923.69;;;27.31;69.64
7668;BME280;3876;42.204;24.686;2023-09-08T08:23:02;99914.97;;;27.01;69.56
7668;BME280;3876;42.204;24.686;2023-09-08T08:25:29;99917.44;;;26.74;71.15
7668;BME280;3876;42.204;24.686;2023-09-08T08:27:56;99911.38;;;26.83;70.34
7668;BME280;3876;42.204;24.686;2023-09-08T08:30:24;99913.44;;;26.89;72.78
7668;BME280;3876;42.204;24.686;2023-09-08T08:32:51;99913.13;;;26.73;70.69
7668;BME280;3876;42.204;24.686;2023-09-08T08:35:20;99908.47;;;26.86;73.98
7668;BME280;3876;42.204;24.686;2023-09-08T08:37:47;99907.78;;;26.94;72.86
7668;BME280;3876;42.204;24.686;2023-09-08T08:40:14;99897.81;;;26.97;70.47
7668;BME280;3876;42.204;24.686;2023-09-08T08:42:41;99905.84;;;27.05;70.01
7668;BME280;3876;42.204;24.686;2023-09-08T08:45:09;99900.28;;;27.18;68.31
7668;BME280;3876;42.204;24.686;2023-09-08T08:47:37;99899.19;;;27.30;70.20
7668;BME280;3876;42.204;24.686;2023-09-08T08:50:05;99897.94;;;27.44;67.48
7668;BME280;3876;42.204;24.686;2023-09-08T08:52:38;99898.66;;;27.46;67.51
7668;BME280;3876;42.204;24.686;2023-09-08T08:55:05;99895.56;;;27.41;67.55
7668;BME280;3876;42.204;24.686;2023-09-08T08:57:36;99900.56;;;27.44;66.98
7668;BME280;3876;42.204;24.686;2023-09-08T09:00:04;99895.03;;;27.47;70.34
7668;BME280;3876;42.204;24.686;2023-09-08T09:02:36;99898.34;;;27.49;69.24
7668;BME280;3876;42.204;24.686;2023-09-08T09:05:04;99893.09;;;27.49;69.93
7668;BME280;3876;42.204;24.686;2023-09-08T09:07:32;99895.31;;;27.44;68.91
7668;BME280;3876;42.204;24.686;2023-09-08T09:10:00;99870.66;;;27.26;69.28
7668;BME280;3876;42.204;24.686;2023-09-08T09:12:27;99898.38;;;27.20;67.86
7668;BME280;3876;42.204;24.686;2023-09-08T09:14:54;99883.38;;;27.21;66.83
7668;BME280;3876;42.204;24.686;2023-09-08T09:17:21;99887.00;;;27.29;69.33
7668;BME280;3876;42.204;24.686;2023-09-08T09:19:47;99887.00;;;27.20;66.25
7668;BME280;3876;42.204;24.686;2023-09-08T09:22:14;99890.31;;;27.22;67.05
7668;BME280;3876;42.204;24.686;2023-09-08T09:24:46;99857.06;;;27.21;67.46
7668;BME280;3876;42.204;24.686;2023-09-08T09:27:14;99878.25;;;27.48;67.71
7668;BME280;3876;42.204;24.686;2023-09-08T09:29:45;99865.31;;;27.64;67.58
7668;BME280;3876;42.204;24.686;2023-09-08T09:32:13;99879.09;;;27.95;66.39
7668;BME280;3876;42.204;24.686;2023-09-08T09:34:47;99893.03;;;28.14;64.80
7668;BME280;3876;42.204;24.686;2023-09-08T09:37:15;99881.81;;;28.12;59.02
7668;BME280;3876;42.204;24.686;2023-09-08T09:39:42;99874.50;;;27.97;57.29
7668;BME280;3876;42.204;24.686;2023-09-08T09:42:08;99875.22;;;27.89;57.09
7668;BME280;3876;42.204;24.686;2023-09-08T09:44:36;99869.59;;;27.75;57.33
7668;BME280;3876;42.204;24.686;2023-09-08T09:47:04;99875.28;;;27.70;56.98
7668;BME280;3876;42.204;24.686;2023-09-08T09:49:32;99870.28;;;27.67;57.87
7668;BME280;3876;42.204;24.686;2023-09-08T09:52:07;99862.78;;;27.82;57.58
7668;BME280;3876;42.204;24.686;2023-09-08T09:54:34;99867.56;;;27.96;56.18
7668;BME280;3876;42.204;24.686;2023-09-08T09:57:02;99860.78;;;27.93;55.88
7668;BME280;3876;42.204;24.686;2023-09-08T09:59:30;99861.09;;;28.17;55.57
7668;BME280;3876;42.204;24.686;2023-09-08T10:01:59;99859.41;;;28.44;59.00
7668;BME280;3876;42.204;24.686;2023-09-08T10:04:27;99859.00;;;28.66;57.16
7668;BME280;3876;42.204;24.686;2023-09-08T10:06:54;99851.78;;;28.68;55.54
7668;BME280;3876;42.204;24.686;2023-09-08T10:09:23;99829.75;;;28.77;57.02
7668;BME280;3876;42.204;24.686;2023-09-08T10:11:51;99846.19;;;29.06;54.34
7668;BME280;3876;42.204;24.686;2023-09-08T10:14:21;99837.19;;;29.17;54.08
7668;BME280;3876;42.204;24.686;2023-09-08T10:16:50;99831.16;;;29.25;52.54
7668;BME280;3876;42.204;24.686;2023-09-08T10:19:21;99828.13;;;29.19;50.48
7668;BME280;3876;42.204;24.686;2023-09-08T10:21:50;99823.31;;;29.33;51.26
7668;BME280;3876;42.204;24.686;2023-09-08T10:24:22;99823.34;;;29.41;51.59
7668;BME280;3876;42.204;24.686;2023-09-08T10:26:56;99818.78;;;29.25;50.72
7668;BME280;3876;42.204;24.686;2023-09-08T10:29:27;99822.59;;;29.31;51.08
7668;BME280;3876;42.204;24.686;2023-09-08T10:31:55;99818.06;;;29.41;50.48
7668;BME280;3876;42.204;24.686;2023-09-08T10:34:24;99817.72;;;29.44;52.20
7668;BME280;3876;42.204;24.686;2023-09-08T10:36:51;99814.31;;;29.51;49.59
7668;BME280;3876;42.204;24.686;2023-09-08T10:39:28;99799.31;;;29.60;51.62
7668;BME280;3876;42.204;24.686;2023-09-08T10:42:20;99808.00;;;29.44;50.26
7668;BME280;3876;42.204;24.686;2023-09-08T10:45:01;99808.63;;;29.38;49.77
7668;BME280;3876;42.204;24.686;2023-09-08T10:47:39;99805.34;;;29.36;49.61
7668;BME280;3876;42.204;24.686;2023-09-08T10:50:16;99801.56;;;29.47;50.74
7668;BME280;3876;42.204;24.686;2023-09-08T10:52:43;99805.50;;;29.68;50.50
7668;BME280;3876;42.204;24.686;2023-09-08T10:55:11;99798.44;;;29.77;49.73
7668;BME280;3876;42.204;24.686;2023-09-08T10:57:44;99798.44;;;29.77;48.76
7668;BME280;3876;42.204;24.686;2023-09-08T11:00:18;99798.44;;;29.77;51.20
7668;BME280;3876;42.204;24.686;2023-09-08T11:02:48;99795.75;;;29.69;48.77
7668;BME280;3876;42.204;24.686;2023-09-08T11:05:17;99793.47;;;29.74;48.60
7668;BME280;3876;42.204;24.686;2023-09-08T11:07:47;99787.19;;;29.75;51.02
7668;BME280;3876;42.204;24.686;2023-09-08T11:10:15;99788.06;;;29.84;47.64
7668;BME280;3876;42.204;24.686;2023-09-08T11:12:44;99789.19;;;29.81;48.95
7668;BME280;3876;42.204;24.686;2023-09-08T11:15:11;99783.69;;;30.00;49.19
7668;BME280;3876;42.204;24.686;2023-09-08T11:17:38;99784.03;;;30.13;48.62
7668;BME280;3876;42.204;24.686;2023-09-08T11:20:08;99774.16;;;30.24;48.84
7668;BME280;3876;42.204;24.686;2023-09-08T11:22:39;99768.91;;;30.40;47.92
7668;BME280;3876;42.204;24.686;2023-09-08T11:25:07;99774.56;;;30.53;46.21
7668;BME280;3876;42.204;24.686;2023-09-08T11:27:36;99767.56;;;30.44;46.18
7668;BME280;3876;42.204;24.686;2023-09-08T11:30:06;99756.34;;;30.42;46.07
7668;BME280;3876;42.204;24.686;2023-09-08T11:32:35;99759.63;;;30.36;44.42
7668;BME280;3876;42.204;24.686;2023-09-08T11:35:04;99758.00;;;30.43;45.89
7668;BME280;3876;42.204;24.686;2023-09-08T11:37:35;99744.09;;;30.41;44.71
7668;BME280;3876;42.204;24.686;2023-09-08T11:40:05;99742.75;;;30.20;45.84
7668;BME280;3876;42.204;24.686;2023-09-08T11:42:38;99748.97;;;30.11;45.38
7668;BME280;3876;42.204;24.686;2023-09-08T11:45:10;99734.94;;;30.19;45.08
7668;BME280;3876;42.204;24.686;2023-09-08T11:47:40;99738.94;;;30.31;43.97
7668;BME280;3876;42.204;24.686;2023-09-08T11:50:09;99729.88;;;30.34;44.49
7668;BME280;3876;42.204;24.686;2023-09-08T11:52:37;99725.72;;;30.39;45.61
7668;BME280;3876;42.204;24.686;2023-09-08T11:55:08;99722.09;;;30.24;45.52
7668;BME280;3876;42.204;24.686;2023-09-08T11:57:35;99722.88;;;30.08;44.78
7668;BME280;3876;42.204;24.686;2023-09-08T12:00:04;99723.00;;;29.99;45.07
7668;BME280;3876;42.204;24.686;2023-09-08T12:02:36;99721.72;;;30.11;44.97
7668;BME280;3876;42.204;24.686;2023-09-08T12:05:03;99717.25;;;30.28;46.15
7668;BME280;3876;42.204;24.686;2023-09-08T12:07:30;99695.47;;;30.34;45.00
7668;BME280;3876;42.204;24.686;2023-09-08T12:09:57;99694.81;;;30.48;43.66
7668;BME280;3876;42.204;24.686;2023-09-08T12:12:26;99704.56;;;30.63;45.45
7668;BME280;3876;42.204;24.686;2023-09-08T12:14:53;99701.28;;;30.53;43.69
7668;BME280;3876;42.204;24.686;2023-09-08T12:17:21;99704.22;;;30.66;43.89
7668;BME280;3876;42.204;24.686;2023-09-08T12:19:50;99705.91;;;30.76;44.25
7668;BME280;3876;42.204;24.686;2023-09-08T12:22:17;99698.47;;;30.55;41.98
7668;BME280;3876;42.204;24.686;2023-09-08T12:24:56;99690.84;;;30.44;41.90
7668;BME280;3876;42.204;24.686;2023-09-08T12:27:26;99696.97;;;30.44;42.65
7668;BME280;3876;42.204;24.686;2023-09-08T12:29:54;99692.31;;;30.38;43.59
7668;BME280;3876;42.204;24.686;2023-09-08T12:32:21;99685.88;;;30.41;43.29
7668;BME280;3876;42.204;24.686;2023-09-08T12:34:49;99682.88;;;30.36;42.06
7668;BME280;3876;42.204;24.686;2023-09-08T12:37:19;99679.25;;;30.37;44.44
7668;BME280;3876;42.204;24.686;2023-09-08T12:39:47;99677.25;;;30.39;43.69
7668;BME280;3876;42.204;24.686;2023-09-08T12:42:14;99693.94;;;30.07;44.10
7668;BME280;3876;42.204;24.686;2023-09-08T12:44:42;99690.47;;;30.06;44.24
7668;BME280;3876;42.204;24.686;2023-09-08T12:47:10;99689.78;;;29.88;44.68
7668;BME280;3876;42.204;24.686;2023-09-08T12:49:37;99685.38;;;29.55;43.00
7668;BME280;3876;42.204;24.686;2023-09-08T12:52:04;99685.03;;;29.50;43.92
7668;BME280;3876;42.204;24.686;2023-09-08T12:54:32;99678.41;;;29.46;44.51
7668;BME280;3876;42.204;24.686;2023-09-08T12:56:58;99680.69;;;29.41;44.02
7668;BME280;3876;42.204;24.686;2023-09-08T12:59:25;99672.50;;;29.60;45.01
7668;BME280;3876;42.204;24.686;2023-09-08T13:01:54;99683.53;;;29.47;45.85
7668;BME280;3876;42.204;24.686;2023-09-08T13:04:21;99681.44;;;29.59;44.66
7668;BME280;3876;42.204;24.686;2023-09-08T13:06:48;99682.09;;;29.61;43.60
7668;BME280;3876;42.204;24.686;2023-09-08T13:09:15;99679.47;;;29.69;44.43